TGPY/GND METAR and TAF weather

Enter ICAO airport designator
Station Type Date Time Source
TGPY METAR 2021/05/11 01:00 UTC NOAA

TGPY 110100Z 07017KT 9999 FEW020 27/23 Q1015 NOSIG


Station Type Date Time Source
TGPY Decoded METAR 2021/05/11 01:00 UTC NOAA

Point Salines Airport, Grenada (TGPY) 12-00N 061-47W 7M
May 10, 2021 - 09:00 PM EDT / 2021.05.11 0100 UTC
Wind: from the ENE (070 degrees) at 20 MPH (17 KT):0
Visibility: greater than 7 mile(s):0
Sky conditions: mostly clear
Temperature: 80 F (27 C)
Dew Point: 73 F (23 C)
Relative Humidity: 78%
Pressure (altimeter): 29.97 in. Hg (1015 hPa)
ob: TGPY 110100Z 07017KT 9999 FEW020 27/23 Q1015 NOSIG
cycle: 1

Station Type Date Time Source
TGPY TAF 2021/05/10 18:30 UTC NOAA

TAF TAF TGPY 101612Z 1018/1118 09015G25KT 9999 FEW019 SCT040

Example: see airport list